createdAt,value
2022-09-20T00:01:36.878Z,96032.59
2022-09-20T00:04:08.231Z,96030.41
2022-09-20T00:06:36.731Z,96028.75
2022-09-20T00:09:05.965Z,96034.41
2022-09-20T00:11:35.502Z,96029.84
2022-09-20T00:14:08.949Z,96033.03
2022-09-20T00:16:39.338Z,96041.09
2022-09-20T00:19:16.932Z,96035.47
2022-09-20T00:21:46.250Z,96028.56
2022-09-20T00:24:16.249Z,96028.56
2022-09-20T00:26:44.615Z,96032.03
2022-09-20T00:29:14.703Z,96021.84
2022-09-20T00:31:44.616Z,96027.50
2022-09-20T00:34:32.106Z,96036.31
2022-09-20T00:37:00.499Z,96033.94
2022-09-20T00:39:30.352Z,96035.00
2022-09-20T00:42:00.079Z,96036.31
2022-09-20T00:44:53.008Z,96039.22
2022-09-20T00:47:26.522Z,96042.41
2022-09-20T00:49:59.313Z,96042.41
2022-09-20T00:52:28.394Z,96045.31
2022-09-20T00:54:57.069Z,96045.50
2022-09-20T00:57:25.631Z,96050.59
2022-09-20T00:59:53.948Z,96055.38
2022-09-20T01:02:26.007Z,96047.38
2022-09-20T01:04:54.379Z,96044.97
2022-09-20T01:07:24.412Z,96048.97
2022-09-20T01:09:52.944Z,96042.84
2022-09-20T01:12:23.609Z,96052.66
2022-09-20T01:14:52.157Z,96048.38
2022-09-20T01:17:21.300Z,96049.44
2022-09-20T01:19:51.124Z,96052.34
2022-09-20T01:22:22.852Z,96053.94
2022-09-20T01:24:55.947Z,96047.81
2022-09-20T01:27:34.782Z,96050.47
2022-09-20T01:30:09.950Z,96052.59
2022-09-20T01:32:47.488Z,96049.31
2022-09-20T01:35:18.459Z,96054.66
2022-09-20T01:38:00.550Z,96050.13
2022-09-20T01:40:36.402Z,96052.22
2022-09-20T01:43:08.950Z,96053.69
2022-09-20T01:45:38.280Z,96057.16
2022-09-20T01:48:14.926Z,96051.22
2022-09-20T01:50:52.925Z,96059.94
2022-09-20T01:53:44.599Z,96061.66
2022-09-20T01:56:57.644Z,96057.34
2022-09-20T01:59:52.421Z,96056.31
2022-09-20T02:03:08.367Z,96055.75
2022-09-20T02:06:07.744Z,96062.13
2022-09-20T02:08:55.665Z,96059.78
2022-09-20T02:11:25.586Z,96051.53
2022-09-20T02:14:10.556Z,96055.81
2022-09-20T02:16:50.008Z,96060.06
2022-09-20T02:19:59.445Z,96052.88
2022-09-20T02:22:42.764Z,96058.22
2022-09-20T02:25:20.339Z,96053.41
2022-09-20T02:27:55.180Z,96056.59
2022-09-20T02:30:32.258Z,96055.31
2022-09-20T02:33:18.623Z,96064.88
2022-09-20T02:35:58.028Z,96055.25
2022-09-20T02:38:43.147Z,96065.41
2022-09-20T02:41:42.513Z,96070.75
2022-09-20T02:44:15.432Z,96068.25
2022-09-20T02:46:50.725Z,96070.13
2022-09-20T02:49:28.425Z,96066.66
2022-09-20T02:51:58.429Z,96072.06
2022-09-20T02:54:32.543Z,96069.63
2022-09-20T02:57:03.073Z,96064.22
2022-09-20T02:59:34.992Z,96072.78
2022-09-20T03:02:08.956Z,96070.31
2022-09-20T03:04:46.211Z,96066.84
2022-09-20T03:07:19.764Z,96066.38
2022-09-20T03:09:49.775Z,96069.56
2022-09-20T03:12:21.139Z,96066.41
2022-09-20T03:14:53.745Z,96074.16
2022-09-20T03:17:28.800Z,96074.97
2022-09-20T03:20:11.033Z,96078.72
2022-09-20T03:22:45.663Z,96076.88
2022-09-20T03:25:39.598Z,96073.34
2022-09-20T03:28:18.904Z,96078.13
2022-09-20T03:30:57.160Z,96081.91
2022-09-20T03:33:33.399Z,96078.94
2022-09-20T03:36:10.067Z,96077.03
2022-09-20T03:38:50.894Z,96078.31
2022-09-20T03:41:38.835Z,96075.94
2022-09-20T03:44:33.395Z,96079.41
2022-09-20T03:47:05.908Z,96081.78
2022-09-20T03:49:53.801Z,96088.97
2022-09-20T03:52:43.592Z,96088.41
2022-09-20T03:55:43.934Z,96093.19
2022-09-20T03:58:19.705Z,96098.69
2022-09-20T04:00:56.926Z,96088.84
2022-09-20T04:03:40.554Z,96088.28
2022-09-20T04:06:23.150Z,96093.59
2022-09-20T04:09:39.941Z,96094.75
2022-09-20T04:12:12.965Z,96085.94
2022-09-20T04:14:44.138Z,96093.94
2022-09-20T04:17:24.961Z,96092.88
2022-09-20T04:20:00.648Z,96094.50
2022-09-20T04:22:28.847Z,96094.97
2022-09-20T04:25:05.418Z,96092.00
2022-09-20T04:27:37.558Z,96094.75
2022-09-20T04:30:11.014Z,96093.41
2022-09-20T04:32:44.408Z,96095.78
2022-09-20T04:35:35.685Z,96092.88
2022-09-20T04:38:05.710Z,96097.94
2022-09-20T04:40:47.552Z,96098.50
2022-09-20T04:43:52.130Z,96100.94
2022-09-20T04:46:56.089Z,96097.47
2022-09-20T04:50:00.242Z,96095.78
2022-09-20T04:52:55.946Z,96104.88
2022-09-20T04:55:40.355Z,96098.50
2022-09-20T04:58:42.266Z,96103.03
2022-09-20T05:01:47.810Z,96109.50
2022-09-20T05:04:49.072Z,96103.91
2022-09-20T05:07:35.685Z,96100.69
2022-09-20T05:10:16.999Z,96110.59
2022-09-20T05:13:01.134Z,96114.88
2022-09-20T05:15:37.735Z,96116.25
2022-09-20T05:18:35.175Z,96122.38
2022-09-20T05:21:13.213Z,96125.28
2022-09-20T05:23:48.866Z,96123.91
2022-09-20T05:26:25.882Z,96126.91
2022-09-20T05:28:58.566Z,96121.56
2022-09-20T05:31:32.246Z,96122.94
2022-09-20T05:34:06.100Z,96129.34
2022-09-20T05:36:41.081Z,96128.84
2022-09-20T05:39:19.859Z,96124.25
2022-09-20T05:41:52.755Z,96126.09
2022-09-20T05:44:35.291Z,96136.84
2022-09-20T05:47:07.431Z,96134.44
2022-09-20T05:49:51.796Z,96127.22
2022-09-20T05:52:33.087Z,96130.16
2022-09-20T05:55:22.404Z,96132.06
2022-09-20T05:58:01.893Z,96136.69
2022-09-20T06:00:34.939Z,96131.91
2022-09-20T06:03:08.271Z,96130.34
2022-09-20T06:05:51.258Z,96135.78
2022-09-20T06:08:45.273Z,96136.13
2022-09-20T06:11:23.938Z,96137.19
2022-09-20T06:14:03.823Z,96135.66
2022-09-20T06:16:42.438Z,96133.28
2022-09-20T06:19:17.520Z,96139.38
2022-09-20T06:21:51.259Z,96140.19
2022-09-20T06:24:29.191Z,96148.47
2022-09-20T06:26:57.484Z,96142.31
2022-09-20T06:29:30.878Z,96144.63
2022-09-20T06:32:01.103Z,96145.69
2022-09-20T06:34:29.780Z,96145.56
2022-09-20T06:37:19.502Z,96138.97
2022-09-20T06:40:04.604Z,96149.88
2022-09-20T06:42:33.513Z,96145.94
2022-09-20T06:45:01.886Z,96144.63
2022-09-20T06:47:34.667Z,96146.72
2022-09-20T06:50:06.624Z,96150.28
2022-09-20T06:52:37.784Z,96151.34
2022-09-20T06:55:09.586Z,96152.75
2022-09-20T06:57:41.305Z,96153.59
2022-09-20T07:00:13.620Z,96152.88
2022-09-20T07:02:47.006Z,96154.41
2022-09-20T07:05:16.646Z,96156.97
2022-09-20T07:07:47.696Z,96166.53
2022-09-20T07:10:17.903Z,96154.69
2022-09-20T07:12:46.917Z,96162.94
2022-09-20T07:15:17.939Z,96153.31
2022-09-20T07:17:49.031Z,96170.44
2022-09-20T07:20:21.565Z,96167.25
2022-09-20T07:22:51.589Z,96172.13
2022-09-20T07:25:20.972Z,96175.28
2022-09-20T07:27:51.201Z,96176.03
2022-09-20T07:30:19.988Z,96177.66
2022-09-20T07:32:50.521Z,96175.59
2022-09-20T07:35:21.564Z,96178.13
2022-09-20T07:37:54.089Z,96180.84
2022-09-20T07:40:22.663Z,96185.44
2022-09-20T07:42:56.223Z,96191.41
2022-09-20T07:45:26.292Z,96190.69
2022-09-20T07:47:58.383Z,96194.47
2022-09-20T07:50:27.398Z,96195.56
2022-09-20T07:52:57.750Z,96199.19
2022-09-20T07:55:26.020Z,96200.13
2022-09-20T07:57:55.251Z,96202.88
2022-09-20T08:00:24.728Z,96207.53
2022-09-20T08:03:01.938Z,96205.19
2022-09-20T08:05:32.410Z,96200.25
2022-09-20T08:08:02.699Z,96199.84
2022-09-20T08:10:32.895Z,96212.47
2022-09-20T08:15:58.286Z,96209.97
2022-09-20T08:18:28.755Z,96206.88
2022-09-20T08:20:57.568Z,96208.53
2022-09-20T08:23:27.440Z,96208.84
2022-09-20T08:25:58.261Z,96215.31
2022-09-20T08:28:26.633Z,96214.97
2022-09-20T08:30:55.997Z,96210.16
2022-09-20T08:33:24.838Z,96213.38
2022-09-20T08:35:57.767Z,96211.81
2022-09-20T08:41:19.501Z,96210.88
2022-09-20T08:43:51.933Z,96208.75
2022-09-20T08:46:23.343Z,96224.50
2022-09-20T08:48:53.429Z,96232.38
2022-09-20T08:51:23.461Z,96231.59
2022-09-20T08:53:53.108Z,96233.03
2022-09-20T08:56:22.823Z,96232.06
2022-09-20T08:58:51.437Z,96231.19
2022-09-20T09:01:24.640Z,96226.31
2022-09-20T09:03:53.854Z,96220.41
2022-09-20T09:06:24.300Z,96235.00
2022-09-20T09:08:53.976Z,96234.94
2022-09-20T09:11:23.845Z,96241.81
2022-09-20T09:13:55.473Z,96246.50
2022-09-20T09:16:33.480Z,96246.63
2022-09-20T09:19:33.373Z,96245.25
2022-09-20T09:22:05.609Z,96251.31
2022-09-20T09:24:34.296Z,96245.13
2022-09-20T09:27:10.912Z,96249.53
2022-09-20T09:29:41.651Z,96244.19
2022-09-20T09:32:22.802Z,96242.56
2022-09-20T09:34:51.295Z,96243.69
2022-09-20T09:37:29.199Z,96252.28
2022-09-20T09:40:09.448Z,96244.00
2022-09-20T09:42:38.424Z,96246.44
2022-09-20T09:45:14.648Z,96250.47
2022-09-20T09:47:43.108Z,96242.31
2022-09-20T09:50:22.147Z,96241.91
2022-09-20T09:53:11.505Z,96248.88
2022-09-20T09:56:00.462Z,96240.44
2022-09-20T09:58:42.259Z,96242.25
2022-09-20T10:01:13.092Z,96241.81
2022-09-20T10:03:50.787Z,96239.38
2022-09-20T10:06:23.072Z,96245.59
2022-09-20T10:09:11.095Z,96232.94
2022-09-20T10:12:04.862Z,96239.69
2022-09-20T10:14:40.568Z,96240.28
2022-09-20T10:17:17.466Z,96239.47
2022-09-20T10:19:58.439Z,96237.06
2022-09-20T10:22:34.088Z,96233.31
2022-09-20T10:25:10.116Z,96238.69
2022-09-20T10:27:50.818Z,96237.34
2022-09-20T10:30:22.276Z,96230.91
2022-09-20T10:33:04.087Z,96232.78
2022-09-20T10:35:38.279Z,96237.88
2022-09-20T10:38:19.827Z,96242.19
2022-09-20T10:41:26.254Z,96238.06
2022-09-20T10:44:05.113Z,96249.78
2022-09-20T10:46:40.215Z,96254.59
2022-09-20T10:49:19.383Z,96259.09
2022-09-20T10:51:49.986Z,96250.38
2022-09-20T10:54:27.110Z,96253.19
2022-09-20T10:57:18.659Z,96248.78
2022-09-20T10:59:48.485Z,96244.88
2022-09-20T11:02:25.189Z,96254.25
2022-09-20T11:05:16.277Z,96247.91
2022-09-20T11:07:54.349Z,96247.75
2022-09-20T11:10:31.799Z,96242.88
2022-09-20T11:13:02.669Z,96248.28
2022-09-20T11:15:39.906Z,96253.56
2022-09-20T11:18:11.224Z,96252.81
2022-09-20T11:20:44.475Z,96256.59
2022-09-20T11:23:16.183Z,96254.25
2022-09-20T11:25:45.982Z,96260.50
2022-09-20T11:28:20.515Z,96266.69
2022-09-20T11:30:55.060Z,96265.44
2022-09-20T11:33:24.797Z,96263.59
2022-09-20T11:35:54.689Z,96269.78
2022-09-20T11:38:27.528Z,96268.97
2022-09-20T11:40:57.992Z,96271.91
2022-09-20T11:43:31.353Z,96276.75
2022-09-20T11:46:04.008Z,96273.03
2022-09-20T11:48:33.720Z,96267.09
2022-09-20T11:51:28.014Z,96274.91
2022-09-20T11:54:09.902Z,96271.91
2022-09-20T11:56:39.078Z,96266.16
2022-09-20T11:59:25.762Z,96266.25
2022-09-20T12:01:55.726Z,96269.75
2022-09-20T12:04:35.046Z,96265.50
2022-09-20T12:07:10.331Z,96262.84
2022-09-20T12:09:43.112Z,96254.28
2022-09-20T12:12:20.681Z,96260.53
2022-09-20T12:14:56.668Z,96263.28
2022-09-20T12:18:08.235Z,96262.22
2022-09-20T12:20:59.840Z,96258.38
2022-09-20T12:24:11.762Z,96266.69
2022-09-20T12:26:42.220Z,96264.53
2022-09-20T12:29:53.368Z,96258.94
2022-09-20T12:32:52.322Z,96259.78
2022-09-20T12:35:58.009Z,96261.94
2022-09-20T12:38:37.716Z,96260.91
2022-09-20T12:41:27.755Z,96260.09
2022-09-20T12:44:07.388Z,96267.31
2022-09-20T12:46:42.848Z,96268.38
2022-09-20T12:50:00.625Z,96267.03
2022-09-20T12:52:57.071Z,96260.84
2022-09-20T12:55:34.768Z,96268.41
2022-09-20T12:58:05.280Z,96269.75
2022-09-20T13:00:41.822Z,96266.28
2022-09-20T13:03:28.321Z,96275.94
2022-09-20T13:06:27.651Z,96273.78
2022-09-20T13:09:06.030Z,96275.63
2022-09-20T13:11:40.547Z,96268.66
2022-09-20T13:14:13.149Z,96269.19
2022-09-20T13:16:51.749Z,96271.03
2022-09-20T13:19:21.122Z,96269.91
2022-09-20T13:21:55.776Z,96260.56
2022-09-20T13:24:24.119Z,96264.84
2022-09-20T13:26:52.737Z,96260.59
2022-09-20T13:29:24.754Z,96258.22
2022-09-20T13:31:56.455Z,96270.56
2022-09-20T13:34:26.014Z,96270.88
2022-09-20T13:36:58.428Z,96274.09
2022-09-20T13:39:30.885Z,96274.91
2022-09-20T13:42:04.484Z,96270.88
2022-09-20T13:44:37.371Z,96278.38
2022-09-20T13:47:22.673Z,96275.97
2022-09-20T13:49:51.443Z,96263.63
2022-09-20T13:52:28.677Z,96270.31
2022-09-20T13:54:57.694Z,96264.06
2022-09-20T13:57:28.941Z,96267.03
2022-09-20T13:59:58.083Z,96260.06
2022-09-20T14:02:29.090Z,96259.59
2022-09-20T14:04:58.980Z,96259.31
2022-09-20T14:07:29.718Z,96260.13
2022-09-20T14:10:00.912Z,96256.03
2022-09-20T14:12:29.550Z,96268.06
2022-09-20T14:15:00.754Z,96262.72
2022-09-20T14:17:37.310Z,96257.38
2022-09-20T14:20:08.116Z,96264.66
2022-09-20T14:22:39.204Z,96272.22
2022-09-20T14:25:25.330Z,96274.13
2022-09-20T14:28:18.865Z,96276.25
2022-09-20T14:30:47.971Z,96277.84
2022-09-20T14:33:18.456Z,96273.81
2022-09-20T14:35:50.928Z,96281.09
2022-09-20T14:38:26.383Z,96276.78
2022-09-20T14:40:55.325Z,96293.66
2022-09-20T14:43:28.608Z,96286.88
2022-09-20T14:45:59.240Z,96291.94
2022-09-20T14:48:35.927Z,96298.06
2022-09-20T14:51:23.397Z,96299.34
2022-09-20T14:54:16.756Z,96290.69
2022-09-20T14:56:51.081Z,96298.97
2022-09-20T14:59:26.783Z,96308.53
2022-09-20T15:02:04.211Z,96300.16
2022-09-20T15:04:33.196Z,96303.91
2022-09-20T15:07:05.284Z,96308.94
2022-09-20T15:09:36.485Z,96303.59
2022-09-20T15:12:05.750Z,96308.72
2022-09-20T15:14:37.694Z,96308.72
2022-09-20T15:17:10.934Z,96313.22
2022-09-20T15:19:41.786Z,96320.16
2022-09-20T15:22:14.007Z,96325.84
2022-09-20T15:24:45.095Z,96335.03
2022-09-20T15:27:17.399Z,96338.47
2022-09-20T15:29:48.271Z,96351.34
2022-09-20T15:32:16.624Z,96359.56
2022-09-20T15:34:46.581Z,96367.28
2022-09-20T15:37:16.054Z,96378.50
2022-09-20T15:39:47.482Z,96378.44
2022-09-20T15:42:15.751Z,96381.28
2022-09-20T15:44:46.397Z,96386.03
2022-09-20T15:47:17.512Z,96388.28
2022-09-20T15:49:47.098Z,96384.19
2022-09-20T15:52:16.587Z,96381.09
2022-09-20T15:54:46.718Z,96374.59
2022-09-20T15:57:17.524Z,96375.34
2022-09-20T15:59:54.339Z,96373.97
2022-09-20T16:02:24.332Z,96370.22
2022-09-20T16:04:56.646Z,96367.22
2022-09-20T16:07:28.813Z,96370.22
2022-09-20T16:09:58.827Z,96369.41
2022-09-20T16:12:30.257Z,96363.00
2022-09-20T16:14:59.132Z,96367.78
2022-09-20T16:17:47.516Z,96374.69
2022-09-20T16:20:16.189Z,96368.53
2022-09-20T16:22:47.423Z,96366.66
2022-09-20T16:25:17.700Z,96373.38
2022-09-20T16:27:46.104Z,96376.09
2022-09-20T16:30:15.940Z,96371.31
2022-09-20T16:32:44.508Z,96378.03
2022-09-20T16:35:15.270Z,96379.09
2022-09-20T16:37:46.386Z,96380.34
2022-09-20T16:40:19.353Z,96387.00
2022-09-20T16:42:52.355Z,96383.97
2022-09-20T16:45:24.345Z,96384.41
2022-09-20T16:47:58.472Z,96394.78
2022-09-20T16:50:27.735Z,96391.56
2022-09-20T16:52:58.488Z,96398.78
2022-09-20T16:55:28.939Z,96404.88
2022-09-20T16:57:57.865Z,96398.72
2022-09-20T17:00:28.338Z,96403.81
2022-09-20T17:03:01.524Z,96402.78
2022-09-20T17:05:30.346Z,96404.88
2022-09-20T17:07:59.596Z,96409.66
2022-09-20T17:10:31.095Z,96412.56
2022-09-20T17:13:01.425Z,96413.34
2022-09-20T17:15:30.869Z,96427.19
2022-09-20T17:17:59.736Z,96428.72
2022-09-20T17:20:29.307Z,96424.16
2022-09-20T17:22:59.549Z,96430.50
2022-09-20T17:25:30.393Z,96430.59
2022-09-20T17:27:59.383Z,96441.38
2022-09-20T17:30:29.612Z,96444.06
2022-09-20T17:32:58.435Z,96441.25
2022-09-20T17:35:29.464Z,96444.81
2022-09-20T17:37:58.248Z,96449.41
2022-09-20T17:40:26.977Z,96450.88
2022-09-20T17:42:58.207Z,96451.25
2022-09-20T17:45:27.059Z,96449.22
2022-09-20T17:47:58.527Z,96454.97
2022-09-20T17:50:27.413Z,96460.47
2022-09-20T17:52:56.236Z,96463.22
2022-09-20T17:55:25.352Z,96477.75
2022-09-20T17:57:58.088Z,96464.78
2022-09-20T18:00:28.907Z,96475.03
2022-09-20T18:03:02.780Z,96470.06
2022-09-20T18:05:33.932Z,96475.22
2022-09-20T18:08:07.640Z,96473.69
2022-09-20T18:10:37.128Z,96476.03
2022-09-20T18:13:07.711Z,96490.63
2022-09-20T18:15:40.574Z,96488.41
2022-09-20T18:18:12.065Z,96491.56
2022-09-20T18:20:42.082Z,96489.72
2022-09-20T18:23:12.646Z,96494.25
2022-09-20T18:25:59.408Z,96495.97
2022-09-20T18:28:28.294Z,96498.31
2022-09-20T18:31:09.388Z,96492.63
2022-09-20T18:33:39.170Z,96503.50
2022-09-20T18:36:08.590Z,96505.25
2022-09-20T18:38:37.169Z,96500.84
2022-09-20T18:41:06.236Z,96505.84
2022-09-20T18:43:35.705Z,96508.59
2022-09-20T18:46:04.447Z,96509.53
2022-09-20T18:48:35.138Z,96507.81
2022-09-20T18:51:05.609Z,96516.69
2022-09-20T18:53:36.977Z,96515.78
2022-09-20T18:56:10.372Z,96511.13
2022-09-20T18:58:46.247Z,96514.72
2022-09-20T19:01:29.667Z,96513.81
2022-09-20T19:04:06.177Z,96514.34
2022-09-20T19:06:40.642Z,96523.81
2022-09-20T19:09:12.234Z,96520.78
2022-09-20T19:11:42.722Z,96526.59
2022-09-20T19:14:14.434Z,96528.28
2022-09-20T19:16:43.826Z,96525.50
2022-09-20T19:19:35.401Z,96529.06
2022-09-20T19:22:08.512Z,96528.13
2022-09-20T19:24:51.390Z,96520.84
2022-09-20T19:27:23.354Z,96542.78
2022-09-20T19:29:54.563Z,96536.66
2022-09-20T19:32:26.242Z,96541.97
2022-09-20T19:35:01.769Z,96541.97
2022-09-20T19:37:34.051Z,96546.03
2022-09-20T19:40:16.587Z,96546.16
2022-09-20T19:42:53.153Z,96544.88
2022-09-20T19:45:30.244Z,96556.72
2022-09-20T19:48:03.313Z,96545.91
2022-09-20T19:50:37.908Z,96546.38
2022-09-20T19:53:07.718Z,96549.72
2022-09-20T19:55:39.665Z,96552.47
2022-09-20T19:58:10.862Z,96553.00
2022-09-20T20:00:40.828Z,96559.78
2022-09-20T20:03:13.462Z,96557.78
2022-09-20T20:05:44.414Z,96554.78
2022-09-20T20:08:16.222Z,96560.75
2022-09-20T20:10:52.121Z,96564.69
2022-09-20T20:13:40.823Z,96572.06
2022-09-20T20:16:12.436Z,96574.13
2022-09-20T20:18:43.836Z,96575.97
2022-09-20T20:21:17.698Z,96583.13
2022-09-20T20:23:59.059Z,96581.69
2022-09-20T20:26:27.896Z,96582.50
2022-09-20T20:28:58.520Z,96584.59
2022-09-20T20:31:27.412Z,96591.50
2022-09-20T20:33:57.344Z,96596.25
2022-09-20T20:36:27.409Z,96598.75
2022-09-20T20:39:06.526Z,96599.16
2022-09-20T20:41:35.881Z,96600.22
2022-09-20T20:44:06.324Z,96594.66
2022-09-20T20:46:36.141Z,96600.16
2022-09-20T20:49:05.702Z,96599.72
2022-09-20T20:51:37.195Z,96600.91
2022-09-20T20:54:10.208Z,96599.66
2022-09-20T20:56:48.088Z,96600.09
2022-09-20T20:59:18.180Z,96598.09
2022-09-20T21:01:47.080Z,96603.41
2022-09-20T21:04:17.990Z,96609.16
2022-09-20T21:06:52.454Z,96606.09
2022-09-20T21:09:21.029Z,96606.53
2022-09-20T21:11:50.003Z,96608.22
2022-09-20T21:14:18.906Z,96605.63
2022-09-20T21:16:50.163Z,96609.75
2022-09-20T21:19:19.226Z,96612.06
2022-09-20T21:21:49.179Z,96607.78
2022-09-20T21:24:18.510Z,96614.09
2022-09-20T21:26:48.596Z,96616.38
2022-09-20T21:29:20.567Z,96617.25
2022-09-20T21:31:49.435Z,96618.94
2022-09-20T21:34:19.686Z,96622.03
2022-09-20T21:36:49.458Z,96621.84
2022-09-20T21:39:17.925Z,96620.47
2022-09-20T21:41:47.519Z,96627.81
2022-09-20T21:44:17.281Z,96629.28
2022-09-20T21:46:48.350Z,96625.22
2022-09-20T21:49:17.649Z,96629.75
2022-09-20T21:51:52.135Z,96633.22
2022-09-20T21:54:20.630Z,96629.97
2022-09-20T21:56:50.198Z,96632.63
2022-09-20T21:59:20.585Z,96641.63
2022-09-20T22:01:49.642Z,96632.25
2022-09-20T22:04:18.028Z,96637.34
2022-09-20T22:06:46.522Z,96637.78
2022-09-20T22:09:24.218Z,96644.50
2022-09-20T22:11:53.339Z,96651.66
2022-09-20T22:14:23.403Z,96650.88
2022-09-20T22:16:54.770Z,96648.22
2022-09-20T22:19:28.367Z,96651.72
2022-09-20T22:22:00.764Z,96644.41
2022-09-20T22:24:32.356Z,96649.09
2022-09-20T22:27:03.400Z,96653.19
2022-09-20T22:29:33.143Z,96652.38
2022-09-20T22:32:04.026Z,96658.91
2022-09-20T22:34:33.946Z,96651.91
2022-09-20T22:37:03.262Z,96653.94
2022-09-20T22:39:35.187Z,96657.78
2022-09-20T22:42:04.728Z,96649.59
2022-09-20T22:44:35.375Z,96652.88
2022-09-20T22:47:05.544Z,96649.81
2022-09-20T22:49:37.070Z,96642.91
2022-09-20T22:52:06.253Z,96644.75
2022-09-20T22:54:36.496Z,96644.34
2022-09-20T22:57:05.889Z,96648.84
2022-09-20T22:59:34.259Z,96652.53
2022-09-20T23:02:02.788Z,96659.47
2022-09-20T23:04:31.313Z,96650.53
2022-09-20T23:07:00.570Z,96648.50
2022-09-20T23:09:29.212Z,96655.03
2022-09-20T23:11:59.309Z,96644.28
2022-09-20T23:14:28.484Z,96639.38
2022-09-20T23:17:00.313Z,96645.34
2022-09-20T23:19:32.178Z,96646.72
2022-09-20T23:22:00.531Z,96649.19
2022-09-20T23:24:31.187Z,96644.53
2022-09-20T23:27:01.021Z,96646.78
2022-09-20T23:29:29.973Z,96649.03
2022-09-20T23:31:58.258Z,96648.66
2022-09-20T23:34:26.444Z,96648.47
2022-09-20T23:36:54.746Z,96645.44
2022-09-20T23:39:23.372Z,96653.00
2022-09-20T23:41:51.662Z,96650.75
2022-09-20T23:44:21.354Z,96647.53
2022-09-20T23:46:55.156Z,96647.94
2022-09-20T23:49:24.514Z,96649.56
2022-09-20T23:51:55.639Z,96669.53
2022-09-20T23:54:27.429Z,96660.97
2022-09-20T23:56:57.780Z,96667.47
2022-09-20T23:59:28.684Z,96674.81
